Time;durP1;ratioP1;P1;durP2;ratioP2;P2;SDS_P1;SDS_P2;PMS_P1;PMS_P2;Temp;Humidity;BMP_temperature;BMP_pressure;BME280_temperature;BME280_humidity;BME280_pressure;Samples;Min_cycle;Max_cycle;Signal;HPM_P1;HPM_P2
2022/06/10 00:01:19;;;;;;;15.97;4.47;;;20.00;60.70;;;;;;5068359;28;20567;-91
2022/06/10 00:03:47;;;;;;;12.27;3.57;;;20.00;60.80;;;;;;5068654;28;20212;-91
2022/06/10 00:06:15;;;;;;;17.03;4.47;;;20.00;60.80;;;;;;5063748;28;20215;-91
2022/06/10 00:08:45;;;;;;;15.13;4.40;;;20.00;61.10;;;;;;5070629;28;20227;-91
2022/06/10 00:11:13;;;;;;;15.40;4.90;;;19.90;61.00;;;;;;5066421;28;20741;-91
2022/06/10 00:13:44;;;;;;;13.27;4.10;;;20.00;61.30;;;;;;5072205;28;20203;-91
2022/06/10 00:16:12;;;;;;;22.13;5.60;;;19.90;61.30;;;;;;5066912;28;20226;-91
2022/06/10 00:18:41;;;;;;;15.97;4.30;;;19.90;61.20;;;;;;5067885;28;20231;-91
2022/06/10 00:21:11;;;;;;;27.50;7.73;;;19.90;61.40;;;;;;5061241;28;20214;-92
2022/06/10 00:23:40;;;;;;;19.60;5.43;;;19.90;61.90;;;;;;5070532;28;20231;-90
2022/06/10 00:26:07;;;;;;;13.03;3.70;;;19.80;62.40;;;;;;5068651;28;20295;-92
2022/06/10 00:28:35;;;;;;;16.77;4.70;;;19.90;61.80;;;;;;5067146;28;20261;-91
2022/06/10 00:31:04;;;;;;;20.80;6.20;;;19.80;61.90;;;;;;5067632;28;20651;-91
2022/06/10 00:33:33;;;;;;;16.33;4.27;;;19.80;62.20;;;;;;5052804;28;20234;-91
2022/06/10 00:36:02;;;;;;;12.27;3.63;;;19.80;62.40;;;;;;5070990;28;20616;-91
2022/06/10 00:38:29;;;;;;;16.77;4.33;;;19.80;62.70;;;;;;5068742;28;20300;-91
2022/06/10 00:40:58;;;;;;;16.93;4.23;;;19.80;62.70;;;;;;5070130;28;20260;-91
2022/06/10 00:43:30;;;;;;;13.50;3.90;;;19.80;62.70;;;;;;5071788;28;20591;-91
2022/06/10 00:46:07;;;;;;;16.20;4.57;;;19.80;62.90;;;;;;5067624;28;20207;-91
2022/06/10 00:48:38;;;;;;;13.13;4.57;;;19.80;63.20;;;;;;5070215;28;20576;-91
2022/06/10 00:51:17;;;;;;;16.37;4.73;;;19.80;62.90;;;;;;5066908;28;20211;-90
2022/06/10 00:53:44;;;;;;;15.10;4.33;;;19.70;63.20;;;;;;5061126;28;20734;-91
2022/06/10 00:56:17;;;;;;;27.20;7.47;;;19.70;62.80;;;;;;5067531;28;20203;-91
2022/06/10 00:58:53;;;;;;;17.80;4.07;;;19.70;63.30;;;;;;5069463;28;20251;-90
2022/06/10 01:01:22;;;;;;;14.30;4.00;;;19.70;63.40;;;;;;5067482;28;20203;-92
2022/06/10 01:03:49;;;;;;;13.40;4.00;;;19.70;63.20;;;;;;5058133;28;20200;-91
2022/06/10 01:06:18;;;;;;;17.13;4.50;;;19.70;63.30;;;;;;5049952;28;20247;-91
2022/06/10 01:08:49;;;;;;;13.37;3.43;;;19.70;63.40;;;;;;5068232;28;20255;-91
2022/06/10 01:11:33;;;;;;;17.10;5.07;;;19.70;63.80;;;;;;5066687;28;20425;-91
2022/06/10 01:14:10;;;;;;;14.00;3.90;;;19.70;64.30;;;;;;5071449;28;20651;-91
2022/06/10 01:16:47;;;;;;;15.10;4.13;;;19.70;64.00;;;;;;5070105;28;20214;-91
2022/06/10 01:19:34;;;;;;;12.90;3.63;;;19.70;64.20;;;;;;5067583;28;20311;-91
2022/06/10 01:22:25;;;;;;;15.57;4.23;;;19.70;64.40;;;;;;5058640;28;20210;-92
2022/06/10 01:25:15;;;;;;;14.03;4.37;;;19.70;64.70;;;;;;5050529;28;20243;-91
2022/06/10 01:28:14;;;;;;;13.33;3.63;;;19.70;64.70;;;;;;5058629;28;20265;-91
2022/06/10 01:31:08;;;;;;;18.00;5.30;;;19.70;64.90;;;;;;5056181;28;20215;-91
2022/06/10 01:34:06;;;;;;;17.40;5.37;;;19.70;64.80;;;;;;5061648;28;20207;-91
2022/06/10 01:36:43;;;;;;;12.67;3.40;;;19.70;64.80;;;;;;5059007;28;20696;-91
2022/06/10 01:39:21;;;;;;;15.00;3.77;;;19.70;64.60;;;;;;5064959;28;20287;-91
2022/06/10 01:41:53;;;;;;;11.37;3.93;;;19.60;64.50;;;;;;5064335;28;20210;-91
2022/06/10 01:44:37;;;;;;;16.67;3.93;;;19.70;64.70;;;;;;5069374;28;20199;-91
2022/06/10 01:47:11;;;;;;;13.83;3.73;;;19.70;65.30;;;;;;5069137;28;20207;-91
2022/06/10 01:49:45;;;;;;;11.57;3.57;;;19.70;64.80;;;;;;5070468;28;20245;-91
2022/06/10 01:52:19;;;;;;;11.97;3.67;;;19.70;65.00;;;;;;5056019;28;20894;-92
2022/06/10 01:54:53;;;;;;;12.43;3.80;;;19.70;65.00;;;;;;5068442;28;20209;-90
2022/06/10 01:57:26;;;;;;;11.90;3.47;;;19.70;65.00;;;;;;5056429;28;20307;-91
2022/06/10 01:59:59;;;;;;;9.10;3.60;;;19.70;65.30;;;;;;5050116;28;20223;-92
2022/06/10 02:02:33;;;;;;;17.17;4.97;;;19.70;65.10;;;;;;5049722;28;21008;-91
2022/06/10 02:05:06;;;;;;;10.13;3.40;;;19.70;65.40;;;;;;5061415;28;20230;-92
2022/06/10 02:07:36;;;;;;;18.93;5.03;;;19.80;65.50;;;;;;5079228;28;20208;-93
2022/06/10 02:10:13;;;;;;;9.80;3.27;;;19.70;65.40;;;;;;5059950;28;20203;-92
2022/06/10 02:12:46;;;;;;;18.90;5.60;;;19.70;65.40;;;;;;5071989;28;20214;-91
2022/06/10 02:15:19;;;;;;;10.87;3.00;;;19.70;65.40;;;;;;5063800;28;20272;-91
2022/06/10 02:17:53;;;;;;;18.67;4.97;;;19.80;65.50;;;;;;5054779;28;20204;-92
2022/06/10 02:20:26;;;;;;;8.60;3.07;;;19.80;65.60;;;;;;5059393;28;20212;-92
2022/06/10 02:22:56;;;;;;;10.57;3.90;;;19.80;65.50;;;;;;5056944;28;20215;-92
2022/06/10 02:25:26;;;;;;;15.50;4.03;;;19.80;65.50;;;;;;5068252;28;20225;-91
2022/06/10 02:27:57;;;;;;;14.13;4.10;;;19.80;65.50;;;;;;5069184;28;20916;-92
2022/06/10 02:30:30;;;;;;;17.77;5.83;;;19.80;65.50;;;;;;5078787;28;20221;-93
2022/06/10 02:32:59;;;;;;;16.10;4.63;;;19.80;65.50;;;;;;5079698;28;20207;-92
2022/06/10 02:35:30;;;;;;;20.00;6.17;;;19.90;65.60;;;;;;5068141;28;20203;-91
2022/06/10 02:38:06;;;;;;;17.27;5.10;;;19.80;65.60;;;;;;5052736;28;20215;-92
2022/06/10 02:40:40;;;;;;;17.50;4.87;;;19.90;65.60;;;;;;5052932;28;20261;-92
2022/06/10 02:43:15;;;;;;;20.73;5.87;;;19.90;65.70;;;;;;5068946;28;20655;-91
2022/06/10 02:45:50;;;;;;;17.20;5.60;;;19.80;65.70;;;;;;5060705;28;20206;-92
2022/06/10 02:48:30;;;;;;;13.57;4.37;;;19.90;66.00;;;;;;5060172;28;20191;-91
2022/06/10 02:50:58;;;;;;;21.57;6.00;;;19.90;66.30;;;;;;5064563;28;20275;-91
2022/06/10 02:53:27;;;;;;;12.20;4.43;;;19.90;65.70;;;;;;5068679;28;20278;-92
2022/06/10 02:55:56;;;;;;;16.57;5.30;;;19.90;65.60;;;;;;5063672;28;20215;-92
2022/06/10 03:01:25;;;;;;;15.77;4.73;;;19.90;66.20;;;;;;5067897;28;20246;-92
2022/06/10 03:04:08;;;;;;;23.50;5.03;;;19.90;65.90;;;;;;5066365;28;20226;-91
2022/06/10 03:06:45;;;;;;;20.70;5.97;;;19.90;66.20;;;;;;5068435;28;20206;-92
2022/06/10 03:09:17;;;;;;;17.40;5.47;;;19.90;66.10;;;;;;5086211;28;20228;-91
2022/06/10 03:11:55;;;;;;;16.23;5.10;;;19.90;66.00;;;;;;5063518;28;20655;-92
2022/06/10 03:14:33;;;;;;;18.67;5.93;;;19.90;66.20;;;;;;5065563;28;20213;-91
2022/06/10 03:17:16;;;;;;;15.23;4.93;;;19.90;66.20;;;;;;5068398;28;20199;-92
2022/06/10 03:19:55;;;;;;;16.80;4.43;;;19.90;66.30;;;;;;5067922;28;20230;-92
2022/06/10 03:22:52;;;;;;;17.00;5.27;;;19.90;66.30;;;;;;5062663;28;20249;-93
2022/06/10 03:25:23;;;;;;;18.87;5.23;;;20.00;66.50;;;;;;5055740;28;20320;-91
2022/06/10 03:27:58;;;;;;;13.37;4.13;;;19.90;65.90;;;;;;5065136;28;20211;-92
2022/06/10 03:30:32;;;;;;;12.97;4.00;;;19.90;65.90;;;;;;5065799;28;20231;-92
2022/06/10 03:33:07;;;;;;;14.97;4.40;;;20.00;66.00;;;;;;5066054;28;20658;-90
2022/06/10 03:35:44;;;;;;;18.47;5.57;;;19.90;66.00;;;;;;5064470;28;20700;-92
2022/06/10 03:38:12;;;;;;;19.17;5.90;;;20.00;66.10;;;;;;5069166;28;20251;-93
2022/06/10 03:40:40;;;;;;;9.40;3.53;;;20.00;65.70;;;;;;5076559;28;20216;-92
2022/06/10 03:43:12;;;;;;;20.23;5.77;;;20.00;65.70;;;;;;5074093;28;20381;-92
2022/06/10 03:45:43;;;;;;;12.87;4.30;;;20.00;66.90;;;;;;5071551;28;20211;-91
2022/06/10 03:48:17;;;;;;;13.67;4.53;;;20.00;66.10;;;;;;5082755;28;20194;-92
2022/06/10 03:50:47;;;;;;;13.33;4.30;;;20.00;66.30;;;;;;5088961;28;20221;-93
2022/06/10 03:53:16;;;;;;;10.33;3.00;;;20.00;66.10;;;;;;5091148;28;20682;-93
2022/06/10 03:55:45;;;;;;;15.50;4.27;;;20.00;66.80;;;;;;5068514;28;20693;-93
2022/06/10 03:58:13;;;;;;;19.83;6.10;;;20.00;66.10;;;;;;5089196;28;20602;-92
2022/06/10 04:00:43;;;;;;;13.03;3.87;;;20.00;66.30;;;;;;5065119;28;20227;-93
2022/06/10 04:03:11;;;;;;;15.17;5.23;;;20.00;66.40;;;;;;5082251;28;20199;-92
2022/06/10 04:05:38;;;;;;;12.87;4.00;;;20.00;66.30;;;;;;5076473;28;20253;-92
2022/06/10 04:08:09;;;;;;;16.50;4.47;;;20.00;66.20;;;;;;5073415;28;20204;-93
2022/06/10 04:10:37;;;;;;;12.57;3.53;;;20.00;67.10;;;;;;5074078;28;20203;-91
2022/06/10 04:13:04;;;;;;;20.53;5.07;;;20.00;66.20;;;;;;5073644;28;20211;-92
2022/06/10 04:15:32;;;;;;;10.53;3.87;;;20.10;66.40;;;;;;5092587;28;20210;-91
2022/06/10 04:18:00;;;;;;;10.23;3.53;;;20.10;66.30;;;;;;5077135;28;20241;-92
2022/06/10 04:20:30;;;;;;;19.97;6.07;;;20.10;66.30;;;;;;5072500;28;20241;-93
2022/06/10 04:22:57;;;;;;;13.33;4.07;;;20.10;66.40;;;;;;5056279;28;20224;-92
2022/06/10 04:25:32;;;;;;;13.27;4.20;;;20.10;66.20;;;;;;5069114;28;20565;-92
2022/06/10 04:28:00;;;;;;;15.30;4.30;;;20.10;66.60;;;;;;5070485;28;20207;-92
2022/06/10 04:30:30;;;;;;;16.43;4.93;;;20.10;66.40;;;;;;5055025;28;20234;-93
2022/06/10 04:32:58;;;;;;;17.10;4.53;;;20.10;66.30;;;;;;5064774;28;20356;-93
2022/06/10 04:35:26;;;;;;;15.30;4.63;;;20.10;66.20;;;;;;5070551;28;20599;-93
2022/06/10 04:37:55;;;;;;;18.33;4.53;;;20.10;66.50;;;;;;5070426;28;20551;-92
2022/06/10 04:40:26;;;;;;;17.03;5.37;;;20.10;66.30;;;;;;5071821;28;20284;-93
2022/06/10 04:42:55;;;;;;;13.07;4.00;;;20.10;66.50;;;;;;5069031;28;20210;-92
2022/06/10 04:45:28;;;;;;;12.43;3.83;;;20.20;66.50;;;;;;5068682;28;20605;-93
2022/06/10 04:47:58;;;;;;;8.73;3.23;;;20.10;66.30;;;;;;5071762;28;20541;-93
2022/06/10 04:50:27;;;;;;;12.00;3.80;;;20.20;66.30;;;;;;5070411;28;20199;-93
2022/06/10 04:52:56;;;;;;;11.47;3.63;;;20.20;66.50;;;;;;5069214;28;20214;-93
2022/06/10 04:55:25;;;;;;;10.93;4.03;;;20.20;66.40;;;;;;5069235;28;20211;-93
2022/06/10 04:57:54;;;;;;;14.23;4.23;;;20.10;66.30;;;;;;5069915;28;20203;-92
2022/06/10 05:00:25;;;;;;;12.37;3.47;;;20.10;66.30;;;;;;5069690;28;20241;-92
2022/06/10 05:02:52;;;;;;;17.67;4.90;;;20.10;66.40;;;;;;5062169;28;20265;-90
2022/06/10 05:05:23;;;;;;;13.63;4.17;;;20.10;66.30;;;;;;5059685;28;20251;-91
2022/06/10 05:07:50;;;;;;;7.37;2.90;;;20.20;66.60;;;;;;5067898;28;20214;-91
2022/06/10 05:10:19;;;;;;;15.77;4.23;;;20.20;66.60;;;;;;5055889;28;20259;-91
2022/06/10 05:12:48;;;;;;;16.73;4.40;;;20.20;66.90;;;;;;5057669;28;20216;-90
2022/06/10 05:15:20;;;;;;;10.23;3.47;;;20.20;66.90;;;;;;5057854;28;20291;-91
2022/06/10 05:17:49;;;;;;;13.30;4.57;;;20.20;67.00;;;;;;5056617;28;20648;-92
2022/06/10 05:20:20;;;;;;;11.23;3.67;;;20.20;67.10;;;;;;5064608;28;20231;-91
2022/06/10 05:22:50;;;;;;;10.90;4.10;;;20.20;67.10;;;;;;5068977;28;20269;-91
2022/06/10 05:25:19;;;;;;;21.80;5.43;;;20.20;67.10;;;;;;5067126;28;20539;-92
2022/06/10 05:27:46;;;;;;;11.83;3.93;;;20.20;67.00;;;;;;5066727;28;20261;-90
2022/06/10 05:30:21;;;;;;;14.63;4.83;;;20.30;67.10;;;;;;5062569;28;20199;-90
2022/06/10 05:32:48;;;;;;;12.33;3.80;;;20.30;67.50;;;;;;5065443;28;20205;-91
2022/06/10 05:35:20;;;;;;;15.70;5.17;;;20.30;67.30;;;;;;5067125;28;20282;-92
2022/06/10 05:37:47;;;;;;;15.63;4.97;;;20.30;67.50;;;;;;5078343;28;20562;-91
2022/06/10 05:40:20;;;;;;;14.63;4.57;;;20.40;67.50;;;;;;5066095;28;20219;-92
2022/06/10 05:42:50;;;;;;;11.43;3.73;;;20.30;67.60;;;;;;5074175;28;20628;-92
2022/06/10 05:45:22;;;;;;;12.27;3.57;;;20.40;67.60;;;;;;5070327;28;20660;-91
2022/06/10 05:47:55;;;;;;;9.27;3.50;;;20.40;67.80;;;;;;5071881;28;20643;-91
2022/06/10 05:50:31;;;;;;;15.33;3.77;;;20.40;67.70;;;;;;5071354;28;20667;-92
2022/06/10 05:53:00;;;;;;;9.50;3.53;;;20.40;67.80;;;;;;5060938;28;20622;-92
2022/06/10 05:55:31;;;;;;;16.57;5.13;;;20.40;67.60;;;;;;5072513;28;20202;-93
2022/06/10 05:57:59;;;;;;;10.87;3.60;;;20.40;67.80;;;;;;5071172;28;20213;-90
2022/06/10 06:00:32;;;;;;;10.73;3.57;;;20.40;67.80;;;;;;5068010;28;20650;-91
2022/06/10 06:02:59;;;;;;;12.20;3.93;;;20.40;68.20;;;;;;5070345;28;20638;-90
2022/06/10 06:05:28;;;;;;;18.13;5.80;;;20.40;68.10;;;;;;5064130;28;20219;-91
2022/06/10 06:07:55;;;;;;;10.20;3.60;;;20.40;68.20;;;;;;5049636;28;20211;-91
2022/06/10 06:10:27;;;;;;;11.00;4.23;;;20.40;68.20;;;;;;5062409;28;20222;-89
2022/06/10 06:12:55;;;;;;;14.37;3.97;;;20.50;68.50;;;;;;5069233;28;20257;-89
2022/06/10 06:15:23;;;;;;;13.23;4.03;;;20.50;68.60;;;;;;5066618;28;20261;-90
2022/06/10 06:17:53;;;;;;;11.47;4.07;;;20.50;68.50;;;;;;5069595;28;20290;-90
2022/06/10 06:20:23;;;;;;;12.27;4.47;;;20.50;68.80;;;;;;5066985;28;20234;-91
2022/06/10 06:22:53;;;;;;;11.63;3.70;;;20.50;68.90;;;;;;5066338;28;20284;-90
2022/06/10 06:25:20;;;;;;;21.00;5.40;;;20.60;68.90;;;;;;5066464;28;20199;-90
2022/06/10 06:27:50;;;;;;;15.40;4.67;;;20.60;68.90;;;;;;5068014;28;20686;-91
2022/06/10 06:30:20;;;;;;;17.63;4.50;;;20.60;69.10;;;;;;5067779;28;20710;-91
2022/06/10 06:32:48;;;;;;;15.63;4.67;;;20.70;69.20;;;;;;5065941;28;20329;-91
2022/06/10 06:35:17;;;;;;;14.43;4.63;;;20.70;69.40;;;;;;5067065;28;20722;-90
2022/06/10 06:37:45;;;;;;;14.43;4.23;;;20.70;69.50;;;;;;5067635;28;21028;-89
2022/06/10 06:40:19;;;;;;;17.67;6.13;;;20.70;69.40;;;;;;5067406;28;20231;-90
2022/06/10 06:42:47;;;;;;;8.77;3.73;;;20.80;69.60;;;;;;5068885;28;20213;-90
2022/06/10 06:45:18;;;;;;;14.93;5.00;;;20.90;69.70;;;;;;5067854;28;20199;-89
2022/06/10 06:47:46;;;;;;;16.70;4.47;;;20.90;69.60;;;;;;5066747;28;20205;-90
2022/06/10 06:50:18;;;;;;;15.80;4.60;;;20.90;69.60;;;;;;5067926;28;20204;-90
2022/06/10 06:52:47;;;;;;;10.37;3.87;;;21.00;69.80;;;;;;5066501;28;20302;-89
2022/06/10 06:55:14;;;;;;;11.83;4.37;;;21.00;69.80;;;;;;5065420;28;20207;-90
2022/06/10 06:57:41;;;;;;;17.73;6.20;;;21.10;69.80;;;;;;5067028;28;20295;-90
2022/06/10 07:00:12;;;;;;;7.63;3.50;;;21.10;69.90;;;;;;5067200;28;20202;-90
2022/06/10 07:02:39;;;;;;;17.83;5.37;;;21.20;70.10;;;;;;5067018;28;20298;-90
2022/06/10 07:05:08;;;;;;;11.67;5.33;;;21.20;70.00;;;;;;5065542;28;20668;-89
2022/06/10 07:07:35;;;;;;;11.77;5.00;;;21.30;70.30;;;;;;5065730;28;20199;-90
2022/06/10 07:10:04;;;;;;;12.17;4.87;;;21.30;70.30;;;;;;5047713;28;20696;-90
2022/06/10 07:12:33;;;;;;;13.37;4.30;;;21.40;70.50;;;;;;5066524;28;20246;-92
2022/06/10 07:15:00;;;;;;;13.53;5.07;;;21.40;70.20;;;;;;5067839;28;20733;-89
2022/06/10 07:17:27;;;;;;;13.17;4.57;;;21.40;70.20;;;;;;5066362;28;20290;-89
2022/06/10 07:19:58;;;;;;;13.47;4.13;;;21.40;70.20;;;;;;5067867;28;20227;-91
2022/06/10 07:22:26;;;;;;;13.80;5.10;;;21.50;70.40;;;;;;5066333;28;20602;-89
2022/06/10 07:24:53;;;;;;;17.60;5.13;;;21.50;71.40;;;;;;5068210;28;20259;-91
2022/06/10 07:27:23;;;;;;;15.73;5.17;;;21.60;70.30;;;;;;5064475;28;20249;-90
2022/06/10 07:29:54;;;;;;;14.97;4.87;;;21.70;70.50;;;;;;5067303;28;20203;-91
2022/06/10 07:32:22;;;;;;;13.27;4.37;;;21.70;70.40;;;;;;5071083;28;20290;-92
2022/06/10 07:34:49;;;;;;;10.10;3.63;;;21.70;70.40;;;;;;5059865;28;20390;-91
2022/06/10 07:37:16;;;;;;;13.57;4.27;;;21.70;70.40;;;;;;5059247;28;20240;-91
2022/06/10 07:39:44;;;;;;;9.50;4.07;;;21.80;70.50;;;;;;5055189;28;20236;-93
2022/06/10 07:42:11;;;;;;;15.83;4.97;;;21.90;70.70;;;;;;5072142;28;20241;-92
2022/06/10 07:44:40;;;;;;;18.77;6.17;;;21.90;70.70;;;;;;5070638;28;20572;-93
2022/06/10 07:47:38;;;;;;;17.33;5.40;;;22.00;70.80;;;;;;5070938;28;20209;-92
2022/06/10 07:50:06;;;;;;;10.87;3.90;;;22.00;70.20;;;;;;5060997;28;20205;-93
2022/06/10 07:52:33;;;;;;;12.97;4.10;;;22.10;70.10;;;;;;5071710;28;20217;-93
2022/06/10 07:55:00;;;;;;;12.87;4.57;;;22.20;70.20;;;;;;5071997;28;20215;-91
2022/06/10 07:57:27;;;;;;;8.93;3.33;;;22.20;70.10;;;;;;5074017;28;20196;-92
2022/06/10 07:59:57;;;;;;;7.53;2.73;;;22.20;70.10;;;;;;5073425;28;20294;-93
2022/06/10 08:02:26;;;;;;;11.83;4.40;;;22.30;70.40;;;;;;5054824;28;20222;-91
2022/06/10 08:04:54;;;;;;;9.27;3.17;;;22.30;70.40;;;;;;5055368;28;20706;-93
2022/06/10 08:07:21;;;;;;;12.03;4.30;;;22.40;70.10;;;;;;5054269;28;20212;-92
2022/06/10 08:09:48;;;;;;;12.57;3.70;;;22.40;70.20;;;;;;5054454;28;20208;-91
2022/06/10 08:12:15;;;;;;;7.37;2.97;;;22.40;70.20;;;;;;5072364;28;20314;-91
2022/06/10 08:14:42;;;;;;;11.03;4.13;;;22.50;70.00;;;;;;5073768;28;20217;-90
2022/06/10 08:17:11;;;;;;;11.67;3.73;;;22.50;69.80;;;;;;5074945;28;20209;-93
2022/06/10 08:19:39;;;;;;;7.90;2.50;;;22.60;69.70;;;;;;5073189;28;20228;-92
2022/06/10 08:24:54;;;;;;;9.13;3.93;;;22.70;70.00;;;;;;5073722;28;20217;-94
2022/06/10 08:27:22;;;;;;;9.80;4.00;;;22.70;69.80;;;;;;5075511;28;20199;-92
2022/06/10 08:29:49;;;;;;;9.57;3.77;;;22.70;69.70;;;;;;5074184;28;20653;-92
2022/06/10 08:32:19;;;;;;;11.53;4.60;;;22.80;70.00;;;;;;5071024;28;20290;-93
2022/06/10 08:34:47;;;;;;;10.50;4.27;;;22.80;69.60;;;;;;5052439;28;20666;-93
2022/06/10 08:37:15;;;;;;;12.03;4.53;;;22.80;69.80;;;;;;5054811;28;20234;-92
2022/06/10 08:39:42;;;;;;;12.20;4.30;;;22.90;69.80;;;;;;5073015;28;20204;-94
2022/06/10 08:42:27;;;;;;;11.23;3.90;;;22.90;69.80;;;;;;5073304;28;20225;-90
2022/06/10 08:44:57;;;;;;;13.03;4.67;;;22.90;69.50;;;;;;5065646;28;20214;-91
2022/06/10 08:47:37;;;;;;;10.53;3.57;;;22.90;69.30;;;;;;5074143;28;20294;-93
2022/06/10 08:50:34;;;;;;;9.33;3.30;;;23.00;69.50;;;;;;5073489;28;21002;-91
2022/06/10 08:53:36;;;;;;;12.27;4.00;;;23.00;69.30;;;;;;5068962;28;20222;-90
2022/06/10 08:56:12;;;;;;;10.20;3.63;;;23.10;69.10;;;;;;5075165;28;20253;-93
2022/06/10 08:58:48;;;;;;;12.30;3.87;;;23.10;68.70;;;;;;5076135;28;20248;-94
2022/06/10 09:01:19;;;;;;;17.97;6.33;;;23.20;68.60;;;;;;5079033;28;20312;-92
2022/06/10 09:03:52;;;;;;;13.67;4.63;;;23.20;68.40;;;;;;5067017;28;20224;-93
2022/06/10 09:06:30;;;;;;;8.63;3.27;;;23.30;68.40;;;;;;5081622;28;20952;-94
2022/06/10 09:09:06;;;;;;;8.80;3.37;;;23.30;68.10;;;;;;5078703;28;20198;-93
2022/06/10 09:11:41;;;;;;;9.97;3.73;;;23.40;68.20;;;;;;5055972;28;20249;-92
2022/06/10 09:14:17;;;;;;;7.10;2.83;;;23.40;68.00;;;;;;5068555;28;20202;-93
2022/06/10 09:16:51;;;;;;;10.63;3.83;;;23.50;69.10;;;;;;5083007;28;20203;-93
2022/06/10 09:19:30;;;;;;;14.43;5.23;;;23.50;68.00;;;;;;5080636;28;20245;-92
2022/06/10 09:22:03;;;;;;;6.97;2.83;;;23.60;68.30;;;;;;5084969;28;20219;-93
2022/06/10 09:24:38;;;;;;;9.33;3.80;;;23.70;68.50;;;;;;5074614;28;20665;-92
2022/06/10 09:27:10;;;;;;;10.67;3.83;;;23.80;68.70;;;;;;5077250;28;20210;-92
2022/06/10 09:29:43;;;;;;;10.30;3.70;;;23.80;68.50;;;;;;5063297;28;20216;-93
2022/06/10 09:32:14;;;;;;;6.67;2.43;;;24.00;68.00;;;;;;5057386;28;20208;-94
2022/06/10 09:34:55;;;;;;;8.10;3.33;;;24.10;68.10;;;;;;5071114;28;20199;-94
2022/06/10 09:37:33;;;;;;;10.97;4.10;;;24.10;66.90;;;;;;5070826;28;20202;-92
2022/06/10 09:43:25;;;;;;;11.97;4.80;;;24.30;66.20;;;;;;5077804;28;20262;-93
2022/06/10 09:46:01;;;;;;;7.63;3.13;;;24.40;66.60;;;;;;5065928;28;20196;-93
2022/06/10 09:48:43;;;;;;;9.13;3.10;;;24.40;66.30;;;;;;5053332;28;20220;-92
2022/06/10 09:51:21;;;;;;;6.17;2.50;;;24.50;66.00;;;;;;5061259;28;20204;-92
2022/06/10 09:54:02;;;;;;;7.43;3.03;;;24.50;65.50;;;;;;5072109;28;20234;-93
2022/06/10 09:56:45;;;;;;;9.80;3.50;;;24.60;65.00;;;;;;5072471;28;20270;-92
2022/06/10 09:59:22;;;;;;;12.67;4.70;;;24.60;64.80;;;;;;5071767;28;20267;-91
2022/06/10 10:02:01;;;;;;;10.47;4.03;;;24.60;64.50;;;;;;5066948;28;20238;-89
2022/06/10 10:04:59;;;;;;;12.17;4.60;;;24.60;64.30;;;;;;5069996;28;20705;-90
2022/06/10 10:07:37;;;;;;;9.83;3.57;;;24.70;64.70;;;;;;5070073;28;20253;-91
2022/06/10 10:10:27;;;;;;;9.47;3.20;;;24.70;64.60;;;;;;5068562;28;20588;-92
2022/06/10 10:13:31;;;;;;;8.93;3.40;;;24.70;64.50;;;;;;5059190;28;20229;-93
2022/06/10 10:16:07;;;;;;;13.60;5.27;;;24.70;64.70;;;;;;5020405;28;20268;-91
2022/06/10 10:18:53;;;;;;;9.53;3.77;;;24.70;64.60;;;;;;5058239;28;20496;-90
2022/06/10 10:21:26;;;;;;;9.40;2.87;;;24.70;64.20;;;;;;5059532;28;20192;-92
2022/06/10 10:23:58;;;;;;;10.27;3.53;;;24.80;64.70;;;;;;5059842;28;20303;-92
2022/06/10 10:26:29;;;;;;;14.67;4.10;;;24.80;64.10;;;;;;5051477;28;20714;-92
2022/06/10 10:29:02;;;;;;;7.53;3.00;;;24.80;64.10;;;;;;5048686;28;20221;-91
2022/06/10 10:31:35;;;;;;;10.17;3.83;;;24.80;64.10;;;;;;5047815;28;20261;-90
2022/06/10 10:34:05;;;;;;;10.33;4.10;;;24.80;64.30;;;;;;5055970;28;20266;-92
2022/06/10 10:36:45;;;;;;;8.70;3.30;;;24.90;64.30;;;;;;5056307;28;20214;-90
2022/06/10 10:39:28;;;;;;;11.77;3.90;;;24.90;64.20;;;;;;5062562;28;20206;-91
2022/06/10 10:41:58;;;;;;;9.47;3.63;;;25.00;63.60;;;;;;5066634;28;20223;-91
2022/06/10 10:44:36;;;;;;;11.27;4.50;;;25.00;63.50;;;;;;5068573;28;20226;-92
2022/06/10 10:47:18;;;;;;;14.13;4.03;;;24.90;63.40;;;;;;5066665;28;20617;-92
2022/06/10 10:49:50;;;;;;;8.73;2.50;;;24.90;63.10;;;;;;5052919;28;20714;-93
2022/06/10 10:52:21;;;;;;;8.97;3.57;;;24.90;63.10;;;;;;5056005;28;20199;-91
2022/06/10 10:54:53;;;;;;;8.17;3.87;;;24.90;63.30;;;;;;5069396;28;20239;-90
2022/06/10 10:57:27;;;;;;;8.53;3.33;;;24.80;63.00;;;;;;5063081;28;20645;-91
2022/06/10 11:00:23;;;;;;;9.07;3.57;;;24.80;63.20;;;;;;5068188;28;20675;-91
2022/06/10 11:02:53;;;;;;;9.80;3.90;;;24.80;63.20;;;;;;5065696;28;20693;-90
2022/06/10 11:05:36;;;;;;;8.23;2.77;;;24.70;63.20;;;;;;5064449;28;20220;-91
2022/06/10 11:08:23;;;;;;;7.13;3.07;;;24.70;63.40;;;;;;5048938;28;20308;-91
2022/06/10 11:11:18;;;;;;;8.43;3.67;;;24.60;63.50;;;;;;5065565;28;20194;-90
2022/06/10 11:13:49;;;;;;;9.60;3.47;;;24.60;63.80;;;;;;5065190;28;20206;-91
2022/06/10 11:16:41;;;;;;;10.93;4.07;;;24.50;64.30;;;;;;5057652;28;20203;-92
2022/06/10 11:19:21;;;;;;;21.27;7.13;;;24.50;64.60;;;;;;5058455;28;20211;-90
2022/06/10 11:21:52;;;;;;;13.17;4.57;;;24.50;64.60;;;;;;5060869;28;20219;-91
2022/06/10 11:24:23;;;;;;;14.70;5.23;;;24.50;64.80;;;;;;5052607;28;20285;-91
2022/06/10 11:26:55;;;;;;;12.27;4.70;;;24.60;65.00;;;;;;5061831;28;20204;-92
2022/06/10 11:29:23;;;;;;;16.60;6.33;;;24.60;65.00;;;;;;5058506;28;20257;-91
2022/06/10 11:31:55;;;;;;;9.03;3.47;;;24.60;64.90;;;;;;5062214;28;20207;-91
2022/06/10 11:34:29;;;;;;;10.40;4.03;;;24.70;64.90;;;;;;5067415;28;20210;-92
2022/06/10 11:36:58;;;;;;;13.93;4.80;;;24.80;64.60;;;;;;5064807;28;20234;-92
2022/06/10 11:39:28;;;;;;;13.90;4.67;;;24.80;64.70;;;;;;5064865;28;20222;-92
2022/06/10 11:42:07;;;;;;;7.00;3.17;;;24.80;64.40;;;;;;5063839;28;20223;-92
2022/06/10 11:44:42;;;;;;;9.70;3.63;;;24.90;64.20;;;;;;5068235;28;21103;-91
2022/06/10 11:47:21;;;;;;;8.07;3.57;;;24.90;64.20;;;;;;5064609;28;20692;-92
2022/06/10 11:49:58;;;;;;;11.63;4.53;;;24.90;64.00;;;;;;5064676;28;20219;-90
2022/06/10 11:52:30;;;;;;;6.40;3.10;;;25.00;64.00;;;;;;5063638;28;20264;-91
2022/06/10 11:55:05;;;;;;;11.13;3.60;;;25.00;64.00;;;;;;5063188;28;20635;-90
2022/06/10 12:00:34;;;;;;;5.97;2.70;;;25.00;64.10;;;;;;5065300;28;20671;-90
2022/06/10 12:03:12;;;;;;;11.77;4.03;;;25.10;63.70;;;;;;5064838;28;20231;-92
2022/06/10 12:05:50;;;;;;;15.53;5.07;;;25.10;63.70;;;;;;5062535;28;20678;-93
2022/06/10 12:08:28;;;;;;;16.83;5.57;;;25.20;63.60;;;;;;5058688;28;20222;-91
2022/06/10 12:11:01;;;;;;;7.77;3.00;;;25.20;63.40;;;;;;5061272;28;20203;-91
2022/06/10 12:13:37;;;;;;;9.80;3.77;;;25.30;62.90;;;;;;5063468;28;20277;-92
2022/06/10 12:16:06;;;;;;;13.67;4.70;;;25.40;63.10;;;;;;5061081;28;20664;-91
2022/06/10 12:18:41;;;;;;;17.67;6.33;;;25.50;63.20;;;;;;5065621;28;20223;-91
2022/06/10 12:21:15;;;;;;;8.37;3.50;;;25.50;63.70;;;;;;5066462;28;20203;-90
2022/06/10 12:23:47;;;;;;;11.77;4.27;;;25.60;62.60;;;;;;5062364;28;20219;-92
2022/06/10 12:26:26;;;;;;;12.70;4.07;;;25.60;62.10;;;;;;5069972;28;20294;-93
2022/06/10 12:29:04;;;;;;;10.57;3.77;;;25.70;61.80;;;;;;5068469;28;20207;-91
2022/06/10 12:32:00;;;;;;;6.37;2.40;;;25.80;61.20;;;;;;5068035;28;20227;-91
2022/06/10 12:34:42;;;;;;;10.20;3.60;;;25.80;61.10;;;;;;5068437;28;20199;-91
2022/06/10 12:37:24;;;;;;;15.53;5.03;;;25.80;60.30;;;;;;5068435;28;20211;-94
2022/06/10 12:39:58;;;;;;;7.17;2.70;;;25.90;60.40;;;;;;5068145;28;20226;-92
2022/06/10 12:42:37;;;;;;;12.60;4.67;;;25.90;60.30;;;;;;5066264;28;20256;-91
2022/06/10 12:45:17;;;;;;;9.10;3.37;;;25.90;60.30;;;;;;5070382;28;20210;-90
2022/06/10 12:47:46;;;;;;;14.00;4.87;;;25.90;60.20;;;;;;5076282;28;20201;-91
2022/06/10 12:50:21;;;;;;;11.43;4.73;;;25.90;60.30;;;;;;5075596;28;20204;-90
2022/06/10 12:53:30;;;;;;;6.93;2.43;;;26.00;60.30;;;;;;5071473;28;20218;-92
2022/06/10 12:55:58;;;;;;;6.63;2.03;;;26.00;60.00;;;;;;5016580;28;20623;-91
2022/06/10 12:58:50;;;;;;;10.20;3.57;;;26.00;59.80;;;;;;5064760;28;20275;-92
2022/06/10 13:01:24;;;;;;;13.53;4.80;;;25.90;59.40;;;;;;5069359;28;20215;-92
2022/06/10 13:03:55;;;;;;;10.30;3.80;;;25.90;59.80;;;;;;5054691;28;20636;-90
2022/06/10 13:06:50;;;;;;;13.37;4.60;;;25.90;59.70;;;;;;5064505;28;20246;-92
2022/06/10 13:09:31;;;;;;;12.77;3.50;;;25.80;59.60;;;;;;5060364;28;20207;-95
2022/06/10 13:12:22;;;;;;;13.07;3.43;;;25.70;59.50;;;;;;5078748;28;20208;-94
2022/06/10 13:15:14;;;;;;;9.63;3.63;;;25.70;59.90;;;;;;5089535;28;20206;-93
2022/06/10 13:17:56;;;;;;;10.67;4.10;;;25.60;60.90;;;;;;5069163;28;20279;-94
2022/06/10 13:20:27;;;;;;;10.40;3.53;;;25.60;61.40;;;;;;5061924;28;20196;-93
2022/06/10 13:23:17;;;;;;;6.33;3.03;;;25.60;61.80;;;;;;5069507;28;20559;-93